Liberta — V2CM3 — position and weather

sailwx.info

Track history (hours):
 
Tides and Currents Weather Stations Pressure Air Temp Water Temp Dewpoint Dewpoint Depression Visibility Wind Speed Wind Dir Waves Ship Positions

Liberta

Last reported at 2014-Oct-19 20:28 UTC. Time now 2014-Nov-01 04:42 UTC.
Position N 33°09' W 008°42'.
Warning: this ship's position is 12 days out of date.

Length 138 m; draft 5.4 m.

Type: Cargo ship. MMSI: 305043000.

Date/timePositionNaut miles runAvg speedWind from/ knotsBaromVisibWave heightAir tempDewpointWater temp
2014-Oct-19 20:28N 33°09' W 008°42'0 0.0
2014-Oct-19 03:16N 33°09' W 008°42'0 0.0
2014-Oct-18 23:19N 33°09' W 008°42'  
2014-Oct-13 03:16N 35°59' W 005°30'7 8.6
2014-Oct-13 02:27N 35°57' W 005°21'4 4.1
2014-Oct-13 01:32N 35°54' W 005°19'0 0.0
2014-Oct-13 00:32N 35°54' W 005°19'0 0.0
2014-Oct-12 23:32N 35°54' W 005°19'0 0.0
2014-Oct-12 22:32N 35°54' W 005°19'0 0.0
2014-Oct-12 21:32N 35°54' W 005°19'0 0.0
2014-Oct-12 20:32N 35°54' W 005°19'1 1.3
2014-Oct-12 19:33N 35°55' W 005°18'2 1.7
2014-Oct-12 18:33N 35°56' W 005°17'25010.3
2014-Oct-11 18:19N 36°37' W 000°11'1011.3
2014-Oct-11 17:28N 36°39' E 000°00'1111.4
2014-Oct-11 16:32N 36°41' E 000°14'1611.5
2014-Oct-11 15:10N 36°44' E 000°33'17110.3
2014-Oct-10 22:31N 37°07' E 004°05'2110.2
2014-Oct-10 20:26N 37°07' E 004°31'  
Track history (hours):
 
Tides and Currents Weather Stations Pressure Air Temp Water Temp Dewpoint Dewpoint Depression Visibility Wind Speed Wind Dir Waves Ship Positions

Liberta

Last reported at 2014-Oct-19 20:28 UTC. Time now 2014-Nov-01 04:42 UTC.
Position N 33°09' W 008°42'.
Warning: this ship's position is 12 days out of date.

Length 138 m; draft 5.4 m.

Type: Cargo ship. MMSI: 305043000.

Date/timePositionNaut miles runAvg speedWind from/ knotsBaromVisibWave heightAir tempDewpointWater temp
2014-Oct-19 20:28N 33°09' W 008°42'0 0.0
2014-Oct-19 03:16N 33°09' W 008°42'0 0.0
2014-Oct-18 23:19N 33°09' W 008°42'  
2014-Oct-13 03:16N 35°59' W 005°30'7 8.6
2014-Oct-13 02:27N 35°57' W 005°21'4 4.1
2014-Oct-13 01:32N 35°54' W 005°19'0 0.0
2014-Oct-13 00:32N 35°54' W 005°19'0 0.0
2014-Oct-12 23:32N 35°54' W 005°19'0 0.0
2014-Oct-12 22:32N 35°54' W 005°19'0 0.0
2014-Oct-12 21:32N 35°54' W 005°19'0 0.0
2014-Oct-12 20:32N 35°54' W 005°19'1 1.3
2014-Oct-12 19:33N 35°55' W 005°18'2 1.7
2014-Oct-12 18:33N 35°56' W 005°17'25010.3
2014-Oct-11 18:19N 36°37' W 000°11'1011.3
2014-Oct-11 17:28N 36°39' E 000°00'1111.4
2014-Oct-11 16:32N 36°41' E 000°14'1611.5
2014-Oct-11 15:10N 36°44' E 000°33'17110.3
2014-Oct-10 22:31N 37°07' E 004°05'2110.2
2014-Oct-10 20:26N 37°07' E 004°31'  

Dump ship's entire track history